createdAt,value
2023-04-05T00:04:05.657Z,96016.00
2023-04-05T00:09:36.608Z,96011.00
2023-04-05T00:15:05.296Z,96005.00
2023-04-05T00:20:37.573Z,96007.00
2023-04-05T00:26:05.583Z,95999.00
2023-04-05T00:31:33.823Z,95997.00
2023-04-05T00:37:02.031Z,95989.00
2023-04-05T00:42:30.459Z,95987.00
2023-04-05T00:47:59.481Z,95990.00
2023-04-05T00:53:28.183Z,95982.00
2023-04-05T00:58:56.316Z,95977.00
2023-04-05T01:04:31.891Z,95973.00
2023-04-05T01:10:05.562Z,95964.00
2023-04-05T01:15:34.077Z,95971.00
2023-04-05T01:21:40.132Z,95964.00
2023-04-05T01:27:21.062Z,95949.00
2023-04-05T01:33:17.696Z,95942.00
2023-04-05T01:38:57.764Z,95937.00
2023-04-05T01:44:29.571Z,95924.00
2023-04-05T01:50:00.909Z,95931.00
2023-04-05T01:55:29.546Z,95924.00
2023-04-05T02:01:05.894Z,95927.00
2023-04-05T02:06:33.705Z,95921.00
2023-04-05T02:12:02.968Z,95916.00
2023-04-05T02:17:34.179Z,95916.00
2023-04-05T02:23:04.207Z,95904.00
2023-04-05T02:28:34.594Z,95907.00
2023-04-05T02:34:02.479Z,95904.00
2023-04-05T02:39:32.848Z,95896.00
2023-04-05T02:45:00.628Z,95896.00
2023-04-05T02:50:29.752Z,95898.00
2023-04-05T02:56:00.283Z,95897.00
2023-04-05T03:01:36.586Z,95892.00
2023-04-05T03:07:15.008Z,95890.00
2023-04-05T03:12:43.250Z,95882.00
2023-04-05T03:18:13.301Z,95873.00
2023-04-05T03:23:46.843Z,95884.00
2023-04-05T03:29:21.236Z,95882.00
2023-04-05T03:34:53.056Z,95884.00
2023-04-05T03:40:24.777Z,95876.00
2023-04-05T03:45:56.511Z,95877.00
2023-04-05T03:51:27.997Z,95870.00
2023-04-05T03:56:57.505Z,95869.00
2023-04-05T04:02:25.900Z,95879.00
2023-04-05T04:07:53.782Z,95875.00
2023-04-05T04:13:23.946Z,95873.00
2023-04-05T04:19:01.280Z,95874.00
2023-04-05T04:24:40.844Z,95873.00
2023-04-05T04:30:27.631Z,95872.00
2023-04-05T04:36:34.698Z,95883.00
2023-04-05T04:42:38.883Z,95864.00
2023-04-05T04:48:33.322Z,95866.00
2023-04-05T04:54:21.151Z,95873.00
2023-04-05T04:59:49.464Z,95867.00
2023-04-05T05:05:17.767Z,95874.00
2023-04-05T05:10:45.937Z,95868.00
2023-04-05T05:16:13.815Z,95868.00
2023-04-05T05:21:42.036Z,95877.00
2023-04-05T05:27:10.048Z,95865.00
2023-04-05T05:32:38.196Z,95873.00
2023-04-05T05:38:10.192Z,95876.00
2023-04-05T05:43:40.046Z,95874.00
2023-04-05T05:49:07.745Z,95884.00
2023-04-05T05:54:35.885Z,95889.00
2023-04-05T06:00:05.647Z,95894.00
2023-04-05T06:05:39.282Z,95894.00
2023-04-05T06:11:07.451Z,95901.00
2023-04-05T06:16:35.674Z,95903.00
2023-04-05T06:22:03.479Z,95912.00
2023-04-05T06:27:31.694Z,95912.00
2023-04-05T06:33:00.346Z,95911.00
2023-04-05T06:38:33.163Z,95913.00
2023-04-05T06:44:01.629Z,95909.00
2023-04-05T06:49:29.448Z,95905.00
2023-04-05T06:55:02.809Z,95909.00
2023-04-05T07:00:31.110Z,95896.00
2023-04-05T07:06:06.305Z,95900.00
2023-04-05T07:11:36.529Z,95898.00
2023-04-05T07:17:07.833Z,95898.00
2023-04-05T07:22:36.012Z,95905.00
2023-04-05T07:28:05.044Z,95899.00
2023-04-05T07:33:34.484Z,95910.00
2023-04-05T07:39:02.377Z,95906.00
2023-04-05T07:44:30.637Z,95920.00
2023-04-05T07:49:59.441Z,95916.00
2023-04-05T07:55:28.333Z,95917.00
2023-04-05T08:01:01.493Z,95920.00
2023-04-05T08:06:29.770Z,95924.00
2023-04-05T08:11:58.067Z,95927.00
2023-04-05T08:17:28.230Z,95923.00
2023-04-05T08:22:57.153Z,95932.00
2023-04-05T08:28:25.282Z,95926.00
2023-04-05T08:33:52.962Z,95932.00
2023-04-05T08:39:21.861Z,95931.00
2023-04-05T08:44:55.238Z,95932.00
2023-04-05T08:50:24.568Z,95926.00
2023-04-05T08:55:56.545Z,95927.00
2023-04-05T09:01:27.214Z,95931.00
2023-04-05T09:06:58.993Z,95922.00
2023-04-05T09:12:28.152Z,95928.00
2023-04-05T09:17:57.076Z,95925.00
2023-04-05T09:23:25.812Z,95935.00
2023-04-05T09:28:53.574Z,95922.00
2023-04-05T09:34:24.711Z,95916.00
2023-04-05T09:40:04.240Z,95922.00
2023-04-05T09:45:43.616Z,95912.00
2023-04-05T09:51:13.187Z,95920.00
2023-04-05T09:56:57.669Z,95915.00
2023-04-05T10:02:40.136Z,95923.00
2023-04-05T10:08:10.130Z,95908.00
2023-04-05T10:13:40.265Z,95916.00
2023-04-05T10:19:17.875Z,95908.00
2023-04-05T10:25:10.498Z,95904.00
2023-04-05T10:30:47.174Z,95902.00
2023-04-05T10:36:46.231Z,95897.00
2023-04-05T10:42:21.971Z,95905.00
2023-04-05T10:48:02.128Z,95898.00
2023-04-05T10:53:34.392Z,95897.00
2023-04-05T10:59:02.864Z,95894.00
2023-04-05T11:04:33.053Z,95897.00
2023-04-05T11:10:06.162Z,95881.00
2023-04-05T11:15:36.169Z,95888.00
2023-04-05T11:21:08.144Z,95879.00
2023-04-05T11:26:44.716Z,95884.00
2023-04-05T11:32:13.708Z,95875.00
2023-04-05T11:38:00.314Z,95879.00
2023-04-05T11:43:30.230Z,95870.00
2023-04-05T11:48:58.120Z,95871.00
2023-04-05T11:54:37.752Z,95863.00
2023-04-05T12:00:08.315Z,95846.00
2023-04-05T12:05:50.694Z,95846.00
2023-04-05T12:11:31.121Z,95859.00
2023-04-05T12:17:00.134Z,95854.00
2023-04-05T12:22:28.380Z,95853.00
2023-04-05T12:28:03.627Z,95857.00
2023-04-05T12:33:34.125Z,95852.00
2023-04-05T12:39:07.626Z,95852.00
2023-04-05T12:44:36.289Z,95858.00
2023-04-05T12:50:18.803Z,95840.00
2023-04-05T12:55:58.618Z,95843.00
2023-04-05T13:01:26.863Z,95839.00
2023-04-05T13:06:55.756Z,95838.00
2023-04-05T13:12:24.087Z,95834.00
2023-04-05T13:17:53.478Z,95831.00
2023-04-05T13:23:21.281Z,95827.00
2023-04-05T13:28:52.346Z,95821.00
2023-04-05T13:34:20.570Z,95820.00
2023-04-05T13:39:48.295Z,95818.00
2023-04-05T13:45:19.084Z,95812.00
2023-04-05T13:50:47.257Z,95795.00
2023-04-05T13:56:15.006Z,95787.00
2023-04-05T14:01:52.129Z,95797.00
2023-04-05T14:07:21.166Z,95792.00
2023-04-05T14:12:49.341Z,95773.00
2023-04-05T14:18:17.508Z,95757.00
2023-04-05T14:23:46.040Z,95759.00
2023-04-05T14:29:14.152Z,95761.00
2023-04-05T14:34:41.861Z,95763.00
2023-04-05T14:40:10.496Z,95750.00
2023-04-05T14:45:38.822Z,95739.00
2023-04-05T14:51:06.936Z,95747.00
2023-04-05T14:56:35.344Z,95747.00
2023-04-05T15:02:03.750Z,95749.00
2023-04-05T15:07:31.849Z,95753.00
2023-04-05T15:13:00.486Z,95770.00
2023-04-05T15:18:28.417Z,95780.00
2023-04-05T15:23:56.440Z,95791.00
2023-04-05T15:29:24.352Z,95780.00
2023-04-05T15:34:52.274Z,95769.00
2023-04-05T15:40:20.666Z,95792.00
2023-04-05T15:45:48.761Z,95790.00
2023-04-05T15:51:16.897Z,95797.00
2023-04-05T15:56:45.466Z,95788.00
2023-04-05T16:02:14.076Z,95796.00
2023-04-05T16:07:42.336Z,95794.00
2023-04-05T16:13:11.283Z,95802.00
2023-04-05T16:18:39.023Z,95759.00
2023-04-05T16:24:07.615Z,95779.00
2023-04-05T16:29:35.740Z,95799.00
2023-04-05T16:35:03.872Z,95799.00
2023-04-05T16:40:33.221Z,95791.00
2023-04-05T16:46:01.771Z,95790.00
2023-04-05T16:51:29.663Z,95788.00
2023-04-05T16:56:57.837Z,95795.00
2023-04-05T17:02:25.669Z,95799.00
2023-04-05T17:07:54.000Z,95805.00
2023-04-05T17:13:21.802Z,95791.00
2023-04-05T17:18:49.686Z,95798.00
2023-04-05T17:24:18.027Z,95793.00
2023-04-05T17:29:46.235Z,95790.00
2023-04-05T17:35:14.763Z,95794.00
2023-04-05T17:40:42.726Z,95806.00
2023-04-05T17:46:21.907Z,95806.00
2023-04-05T17:51:59.338Z,95806.00
2023-04-05T17:57:27.403Z,95811.00
2023-04-05T18:02:56.453Z,95816.00
2023-04-05T18:08:26.470Z,95821.00
2023-04-05T18:13:55.490Z,95818.00
2023-04-05T18:19:23.797Z,95823.00
2023-04-05T18:24:52.042Z,95835.00
2023-04-05T18:30:20.366Z,95833.00
2023-04-05T18:35:51.896Z,95843.00
2023-04-05T18:41:19.745Z,95846.00
2023-04-05T18:46:48.999Z,95853.00
2023-04-05T18:52:22.554Z,95853.00
2023-04-05T18:57:50.563Z,95861.00
2023-04-05T19:03:18.653Z,95860.00
2023-04-05T19:08:48.191Z,95868.00
2023-04-05T19:14:16.741Z,95873.00
2023-04-05T19:19:44.583Z,95873.00
2023-04-05T19:25:12.453Z,95876.00
2023-04-05T19:30:41.221Z,95872.00
2023-04-05T19:36:10.608Z,95877.00
2023-04-05T19:41:38.893Z,95878.00
2023-04-05T19:47:11.573Z,95873.00
2023-04-05T19:52:48.086Z,95887.00
2023-04-05T19:58:28.149Z,95877.00
2023-04-05T20:03:58.091Z,95878.00
2023-04-05T20:09:29.775Z,95876.00
2023-04-05T20:14:58.163Z,95875.00
2023-04-05T20:20:25.982Z,95873.00
2023-04-05T20:25:54.066Z,95878.00
2023-04-05T20:31:28.852Z,95867.00
2023-04-05T20:37:00.688Z,95868.00
2023-04-05T20:42:29.185Z,95864.00
2023-04-05T20:47:58.249Z,95868.00
2023-04-05T20:53:29.234Z,95869.00
2023-04-05T20:58:59.286Z,95869.00
2023-04-05T21:04:34.783Z,95856.00
2023-04-05T21:10:13.462Z,95861.00
2023-04-05T21:15:41.346Z,95851.00
2023-04-05T21:21:09.717Z,95863.00
2023-04-05T21:26:38.023Z,95862.00
2023-04-05T21:32:06.381Z,95870.00
2023-04-05T21:37:34.685Z,95863.00
2023-04-05T21:43:05.518Z,95872.00
2023-04-05T21:48:34.628Z,95858.00
2023-04-05T21:54:06.193Z,95862.00
2023-04-05T21:59:35.799Z,95862.00
2023-04-05T22:05:05.530Z,95861.00
2023-04-05T22:10:34.709Z,95866.00
2023-04-05T22:16:02.930Z,95870.00
2023-04-05T22:21:30.905Z,95870.00
2023-04-05T22:26:58.873Z,95865.00
2023-04-05T22:32:27.157Z,95865.00
2023-04-05T22:37:55.298Z,95865.00
2023-04-05T22:43:24.062Z,95859.00
2023-04-05T22:48:52.253Z,95862.00
2023-04-05T22:54:20.040Z,95850.00
2023-04-05T22:59:48.026Z,95845.00
2023-04-05T23:05:16.416Z,95852.00
2023-04-05T23:10:44.118Z,95849.00
2023-04-05T23:16:12.553Z,95851.00
2023-04-05T23:21:40.440Z,95847.00
2023-04-05T23:27:08.316Z,95859.00
2023-04-05T23:32:36.241Z,95858.00
2023-04-05T23:38:05.167Z,95852.00
2023-04-05T23:43:33.680Z,95848.00
2023-04-05T23:49:01.709Z,95848.00
2023-04-05T23:54:29.582Z,95843.00
2023-04-05T23:59:57.877Z,95836.00
